Data for 09/16/2013

Time Sea-Level Adjusted Pressure Absolute Pressure Temperature Relative Humidity Dew Point   
(mb) (inHg) (mb) (inHg) (C) (F) (%) (C) (F)
03:50 1018 30.06 847 25.01 14.3 57.8 69 8.8 47.8
00:05 1018 30.06 847 25.01 16.2 61.1 66 10 49.9
00:10 1018 30.06 847 25.01 16.2 61.1 67 10 50.1
00:15 1018 30.06 847 25.01 16.2 61.1 66 9.9 49.8
00:20 1018 30.06 847 25.01 16.1 60.9 67 9.9 49.8
00:25 1018 30.06 847 25.01 16.1 61.1 65 9.6 49.2
00:30 1018 30.06 847 25.01 16.3 61.3 65 9.8 49.6
00:35 1018 30.06 847 25.01 16.2 61.1 65 9.6 49.3
00:40 1018 30.06 847 25.01 16.2 61.2 65 9.7 49.5
00:45 1018 30.06 847 25.01 16.1 60.9 66 9.9 49.8
00:50 1018 30.06 847 25.01 15.9 60.7 66 9.6 49.3
00:55 1018 30.06 847 25.01 15.9 60.6 66 9.7 49.5
01:00 1018 30.06 847 25.01 15.8 60.4 67 9.7 49.4
01:05 1018 30.06 847 25.01 15.7 60.3 66 9.5 49.1
01:10 1018 30.06 847 25.01 15.7 60.2 66 9.5 49.1
01:15 1018 30.06 847 25.01 15.5 59.9 68 9.6 49.3
01:20 1018 30.06 847 25.01 15.3 59.6 69 9.7 49.5
01:25 1018 30.06 847 25.01 15.3 59.6 68 9.5 49.2
01:30 1018 30.06 847 25.01 15.3 59.5 69 9.6 49.3
01:35 1018 30.06 847 25.01 15.2 59.4 69 9.5 49.2
01:40 1018 30.06 847 25.01 15.3 59.5 68 9.4 48.9
01:45 1017 30.03 847 25.01 15.3 59.6 68 9.4 49
01:50 1018 30.06 847 25.01 15.3 59.5 68 9.5 49.1
01:55 1018 30.06 847 25.01 15.1 59.1 68 9.2 48.6
02:00 1018 30.06 847 25.01 15.1 59.2 70 9.7 49.4
02:05 1018 30.06 847 25.01 14.9 58.8 69 9.2 48.6
02:10 1018 30.06 847 25.01 15.2 59.3 68 9.2 48.6
02:15 1018 30.06 847 25.01 15.4 59.6 66 9.1 48.5
02:20 1018 30.06 847 25.01 15.5 59.9 66 9.2 48.6
02:25 1018 30.06 847 25.01 15.3 59.6 68 9.4 49
02:30 1018 30.06 847 25.01 15 58.9 68 9.1 48.4
02:35 1018 30.06 847 25.01 15.1 59.2 67 9.1 48.4
02:40 1018 30.06 847 25.01 15.3 59.5 67 9.3 48.7
02:45 1018 30.06 847 25.01 15 59 68 9.2 48.6
02:50 1018 30.06 847 25.01 14.9 58.8 68 9.1 48.4
02:55 1018 30.06 847 25.01 15 58.9 68 9.1 48.3
03:00 1018 30.06 847 25.01 14.9 58.9 68 9.1 48.5
03:05 1018 30.06 847 25.01 14.8 58.6 69 9.2 48.6
03:10 1018 30.06 847 25.01 14.6 58.3 69 9.1 48.4
03:15 1018 30.06 847 25.01 14.6 58.3 68 8.8 47.8
03:20 1018 30.06 847 25.01 14.6 58.3 68 8.9 48.1
03:25 1018 30.06 847 25.01 14.4 57.8 68 8.6 47.5
03:30 1018 30.06 847 25.01 14.5 58 68 8.8 47.8
03:35 1018 30.06 847 25.01 14.4 57.9 68 8.7 47.6
03:40 1018 30.06 847 25.01 14.5 58.1 68 8.7 47.7
03:45 1018 30.06 847 25.01 14.4 57.9 68 8.7 47.7
03:55 1018 30.06 847 25.01 14.1 57.5 69 8.7 47.6
04:00 1018 30.06 847 25.01 14.1 57.3 68 8.4 47.1
04:05 1018 30.06 847 25.01 14.1 57.4 69 8.6 47.4
04:10 1018 30.06 847 25.01 14.1 57.3 69 8.6 47.4
04:15 1018 30.06 847 25.01 14 57.1 70 8.5 47.3
04:20 1018 30.06 847 25.01 13.9 57 70 8.5 47.3
04:25 1018 30.06 847 25.01 14 57.2 69 8.4 47.2
04:30 1018 30.06 847 25.01 14.2 57.6 68 8.4 47.2
04:35 1018 30.06 847 25.01 14.4 57.9 67 8.4 47.1
04:40 1018 30.06 847 25.01 14.5 58.1 67 8.4 47.1
04:45 1018 30.06 847 25.01 14.5 58.2 67 8.5 47.2
04:50 1018 30.06 847 25.01 14.3 57.8 68 8.6 47.4
04:55 1018 30.06 847 25.01 13.7 56.7 70 8.4 47.1
05:00 1018 30.06 847 25.01 13.6 56.5 69 8.2 46.8
05:05 1018 30.06 847 25.01 13.8 56.8 69 8.2 46.8
05:10 1018 30.06 847 25.01 13.8 56.8 69 8.3 46.9
05:15 1018 30.06 847 25.01 13.7 56.6 68 8 46.4
05:20 1018 30.06 847 25.01 13.7 56.7 68 8.1 46.5
05:25 1018 30.06 847 25.01 13.7 56.7 68 7.9 46.2
05:30 1018 30.06 847 25.01 13.8 56.8 67 7.8 46.1
05:35 1018 30.06 847 25.01 14.2 57.6 66 8 46.3
05:40 1018 30.06 847 25.01 14 57.2 67 8.1 46.5
05:45 1018 30.06 847 25.01 13.7 56.6 69 8.1 46.7
05:50 1018 30.06 847 25.01 13.4 56.1 69 8 46.3
05:55 1018 30.06 847 25.01 13.3 55.9 69 7.8 46.1
06:00 1018 30.06 847 25.01 13.2 55.8 69 7.7 45.8
06:05 1018 30.06 847 25.01 13 55.4 70 7.6 45.7
06:10 1018 30.06 847 25.01 12.7 54.9 70 7.5 45.5
06:15 1018 30.06 847 25.01 12.7 54.8 70 7.4 45.3
06:20 1018 30.06 847 25.01 12.9 55.3 68 7.3 45.1
06:25 1018 30.06 847 25.01 13.4 56.1 66 7.3 45.1
06:30 1018 30.06 847 25.01 13.5 56.3 67 7.6 45.6
06:35 1018 30.06 847 25.01 13.3 55.9 68 7.6 45.7
06:40 1018 30.06 847 25.01 13.4 56.1 67 7.4 45.4
06:45 1018 30.06 847 25.01 13.8 56.9 65 7.4 45.3
06:50 1017 30.03 847 25.01 14.2 57.5 64 7.5 45.5
06:55 1017 30.03 847 25.01 14.4 58 63 7.6 45.6
07:00 1017 30.03 847 25.01 14.6 58.3 63 7.6 45.8
07:05 1017 30.03 847 25.01 14.9 58.8 63 7.9 46.3
07:10 1017 30.03 847 25.01 14.9 58.8 63 7.9 46.2
07:15 1017 30.03 847 25.01 15.1 59.1 62 8 46.4
07:20 1017 30.03 847 25.01 15.2 59.3 62 8 46.4
07:25 1017 30.03 847 25.01 15.4 59.7 61 8 46.4
07:30 1017 30.03 847 25.01 15.7 60.3 60 7.9 46.3
07:35 1017 30.03 846 24.98 16.1 61 58 7.9 46.2
07:40 1017 30.03 846 24.98 16.5 61.7 58 8.2 46.8
07:45 1017 30.03 846 24.98 16.6 61.9 58 8.3 46.9
07:50 1017 30.03 846 24.98 16.7 62.1 57 8.2 46.7
07:55 1017 30.03 847 25.01 17.2 62.9 56 8.5 47.4
08:00 1017 30.03 847 25.01 17.4 63.3 55 8.4 47.1
08:05 1017 30.03 847 25.01 17.8 64 54 8.4 47.2
08:10 1017 30.03 847 25.01 18.3 64.9 52 8.5 47.2
08:15 1017 30.03 847 25.01 18.6 65.6 51 8.3 47
08:20 1017 30.03 847 25.01 18.9 66.1 51 8.6 47.5
08:25 1017 30.03 847 25.01 19.3 66.7 49 8.5 47.3
08:30 1017 30.03 847 25.01 19.9 67.8 46 8.2 46.7
08:35 1017 30.03 847 25.01 20.3 68.6 47 8.8 47.8
08:40 1017 30.03 847 25.01 20.4 68.8 48 9.3 48.7
08:45 1017 30.03 846 24.98 20.1 68.2 49 9.3 48.7
08:50 1017 30.03 846 24.98 20.1 68.2 47 8.7 47.6
08:55 1017 30.03 846 24.98 20.6 69.2 47 9.2 48.6
09:00 1017 30.03 846 24.98 20.7 69.3 45 8.7 47.6
09:05 1017 30.03 846 24.98 21.3 70.3 45 8.9 48
09:10 1017 30.03 846 24.98 21.9 71.4 44 9.3 48.8
09:15 1017 30.03 846 24.98 22 71.6 44 9.4 48.8
09:20 1017 30.03 846 24.98 22.1 71.7 43 9.1 48.4
09:25 1017 30.03 846 24.98 22.8 73 40 8.9 47.9
09:30 1017 30.03 846 24.98 22.6 72.7 42 9.1 48.3
09:35 1017 30.03 846 24.98 23 73.4 40 9 48.2
09:40 1017 30.03 846 24.98 23.7 74.7 39 9.2 48.6
09:45 1017 30.03 846 24.98 23.6 74.4 39 8.9 48.1
09:50 1017 30.03 846 24.98 23.8 74.8 39 9.3 48.7
09:55 1017 30.03 846 24.98 23.7 74.6 39 9 48.2
10:00 1017 30.03 846 24.98 23.7 74.6 37 8.3 46.9
10:05 1017 30.03 846 24.98 23.9 75 39 9.3 48.7
10:10 1017 30.03 846 24.98 23.8 74.8 37 8.3 46.9
10:15 1017 30.03 846 24.98 24.8 76.6 35 8.5 47.3
10:20 1017 30.03 846 24.98 25.5 77.9 33 8.1 46.7
10:25 1017 30.03 846 24.98 26 78.7 32 8.1 46.7
10:30 1016 30 846 24.98 25.9 78.6 33 8.8 47.8
10:35 1016 30 846 24.98 25.3 77.6 34 8.5 47.2
10:40 1016 30 845 24.95 24.7 76.5 32 7.3 45.1
10:45 1016 30 845 24.95 25.3 77.5 33 8.1 46.5
10:50 1016 30 845 24.95 25.1 77.2 31 6.9 44.3
10:55 1016 30 845 24.95 25.4 77.8 31 7.5 45.6
11:00 1016 30 845 24.95 26 78.9 30 7.4 45.4
11:05 1016 30 846 24.98 26.6 79.9 31 8.4 47.1
11:10 1016 30 845 24.95 26.7 80.1 29 7.7 45.8
11:15 1016 30 845 24.95 26.4 79.6 28 6.7 44.1
11:20 1016 30 845 24.95 26.1 79 29 7 44.6
11:25 1016 30 845 24.95 26.8 80.3 29 7.5 45.4
11:30 1016 30 845 24.95 27.3 81.2 27 7.2 44.9
11:35 1016 30 845 24.95 27.1 80.8 27 7 44.7
11:40 1016 30 845 24.95 27.4 81.2 28 7.3 45.1
11:45 1016 30 845 24.95 27.1 80.8 27 6.8 44.3
11:50 1016 30 845 24.95 27.7 81.9 28 7.7 45.8
11:55 1016 30 845 24.95 27 80.6 28 7.2 44.9
12:00 1016 30 845 24.95 26.8 80.3 28 7.1 44.8
12:05 1016 30 845 24.95 26.9 80.4 27 6.5 43.7
12:10 1016 30 845 24.95 26.3 79.3 28 6.6 44
12:15 1016 30 845 24.95 26.2 79.1 29 7.1 44.7
12:20 1016 30 845 24.95 25.4 77.7 30 6.7 44
12:25 1016 30 845 24.95 25.3 77.6 30 6.8 44.3
12:30 1016 30 845 24.95 25.9 78.6 29 6.9 44.5
12:35 1016 30 845 24.95 26.1 79 28 6.5 43.6
12:40 1016 30 845 24.95 26.7 80.1 29 7.2 45
12:45 1016 30 845 24.95 26.6 79.8 28 6.9 44.5
12:50 1016 30 845 24.95 26.6 79.8 28 7 44.6
12:55 1016 30 845 24.95 27.3 81.1 27 7 44.6
13:00 1016 30 845 24.95 27.3 81.1 27 7.2 44.9
13:05 1016 30 845 24.95 26.9 80.4 30 8 46.3
13:10 1016 30 845 24.95 26.1 78.9 30 7.4 45.3
13:15 1016 30 845 24.95 25.5 77.9 31 7.3 45.1
13:20 1016 30 845 24.95 25.7 78.2 30 7.3 45.1
13:25 1016 30 845 24.95 25.9 78.6 31 7.7 45.9
13:30 1016 30 845 24.95 25.8 78.4 31 7.8 46
13:35 1016 30 846 24.98 25.2 77.4 33 8.2 46.7
13:40 1017 30.03 846 24.98 20.8 69.5 60 12.8 55
13:45 1017 30.03 847 25.01 16.8 62.3 72 11.7 53.1
13:50 1018 30.06 847 25.01 15.5 60 75 11.1 52
13:55 1018 30.06 847 25.01 14.7 58.4 77 10.7 51.2
14:00 1018 30.06 847 25.01 14.8 58.7 77 10.8 51.5
14:05 1018 30.06 847 25.01 14.8 58.7 75 10.6 51
14:10 1018 30.06 847 25.01 15 59 73 10.2 50.3
14:15 1017 30.03 847 25.01 15.4 59.6 69 9.7 49.5
14:20 1017 30.03 846 24.98 15.9 60.5 65 9.4 48.9
14:25 1017 30.03 846 24.98 16.3 61.4 60 8.6 47.5
14:30 1017 30.03 847 25.01 17 62.6 67 10.8 51.4
14:35 1017 30.03 846 24.98 17.1 62.7 70 11.7 53
14:40 1017 30.03 846 24.98 17 62.6 75 12.7 54.8
14:45 1017 30.03 846 24.98 16.8 62.2 71 11.4 52.6
14:50 1017 30.03 846 24.98 17.3 63.1 65 10.7 51.3
14:55 1017 30.03 846 24.98 18 64.3 65 11.3 52.3
15:00 1017 30.03 846 24.98 18.6 65.5 63 11.6 52.9
15:05 1017 30.03 846 24.98 18 64.4 67 11.8 53.2
15:10 1016 30 846 24.98 17.6 63.6 64 10.7 51.2
15:15 1016 30 846 24.98 17.7 63.9 63 10.7 51.3
15:20 1016 30 845 24.95 17.8 64.1 61 10.4 50.7
15:25 1016 30 845 24.95 18.2 64.7 62 10.7 51.3
15:30 1016 30 845 24.95 18.5 65.3 61 10.9 51.5
15:35 1016 30 845 24.95 18.7 65.7 59 10.5 51
15:40 1016 30 845 24.95 18.8 65.8 58 10.4 50.7
15:45 1016 30 845 24.95 19.3 66.8 48 8.1 46.6
15:50 1015 29.97 845 24.95 19.7 67.5 47 8.2 46.8
15:55 1015 29.97 845 24.95 20 67.9 47 8.6 47.5
16:00 1015 29.97 844 24.92 20.2 68.3 45 8.1 46.6
16:05 1015 29.97 844 24.92 19.9 67.8 46 8 46.4
16:10 1015 29.97 844 24.92 19.8 67.6 47 8.2 46.7
16:15 1015 29.97 844 24.92 19.3 66.7 48 8.1 46.6
16:20 1015 29.97 844 24.92 19.2 66.5 47 7.8 46
16:25 1015 29.97 844 24.92 19.6 67.3 46 7.7 45.8
16:30 1015 29.97 844 24.92 19.8 67.6 48 8.7 47.6
16:35 1015 29.97 844 24.92 19.9 67.8 47 8.3 46.9
16:40 1015 29.97 844 24.92 19.8 67.6 47 8.2 46.7
16:45 1015 29.97 844 24.92 19.7 67.4 47 8.3 47
16:50 1015 29.97 844 24.92 19.7 67.4 48 8.6 47.4
16:55 1014 29.94 844 24.92 19.5 67.1 50 8.9 47.9
17:00 1014 29.94 844 24.92 19.3 66.7 50 8.8 47.9
17:05 1014 29.94 844 24.92 19.2 66.5 51 8.8 47.8
17:10 1014 29.94 844 24.92 19.2 66.6 50 8.7 47.6
17:15 1014 29.94 844 24.92 19.5 67.1 51 9.4 48.8
17:20 1014 29.94 844 24.92 19.4 67 52 9.3 48.8
17:25 1014 29.94 844 24.92 19.4 66.9 54 9.9 49.8
17:30 1014 29.94 843 24.89 19.5 67.1 51 9.3 48.8
17:35 1014 29.94 844 24.92 19.4 66.9 51 9.2 48.6
17:40 1014 29.94 844 24.92 19.3 66.8 52 9.4 48.9
17:45 1014 29.94 844 24.92 19.1 66.4 54 9.8 49.6
17:50 1015 29.97 844 24.92 19 66.3 53 9.5 49.1
17:55 1014 29.94 844 24.92 19.1 66.5 55 10.1 50.2
18:00 1014 29.94 844 24.92 19 66.2 59 10.9 51.7
18:05 1014 29.94 844 24.92 18.4 65.1 62 11.1 51.9
18:10 1015 29.97 844 24.92 18.6 65.5 57 10 49.9
18:15 1015 29.97 844 24.92 18.8 65.8 57 10.3 50.5
18:20 1015 29.97 844 24.92 18.6 65.6 57 10 49.9
18:25 1015 29.97 844 24.92 18.6 65.5 57 10 50.1
18:30 1015 29.97 844 24.92 18.5 65.4 58 10.1 50.2
18:35 1015 29.97 844 24.92 18.6 65.5 59 10.5 50.9
18:40 1015 29.97 844 24.92 18.6 65.4 58 10.3 50.6
18:45 1015 29.97 844 24.92 18.5 65.2 59 10.4 50.8
18:50 1015 29.97 844 24.92 18.2 64.7 59 10.2 50.3
18:55 1015 29.97 844 24.92 17.8 64.1 65 11.2 52.1
19:00 1015 29.97 844 24.92 17.3 63.2 66 11.1 52
19:05 1015 29.97 844 24.92 17.3 63.1 62 9.9 49.8
19:10 1015 29.97 844 24.92 17.7 63.9 60 9.9 49.8
19:15 1015 29.97 844 24.92 17.8 64.1 57 9.3 48.7
19:20 1015 29.97 844 24.92 18 64.5 59 9.9 49.8
19:25 1015 29.97 844 24.92 17.8 64 57 9.1 48.4
19:30 1015 29.97 844 24.92 18 64.4 54 8.6 47.5
19:35 1014 29.94 843 24.89 18.4 65.1 51 8.3 46.9
19:40 1014 29.94 844 24.92 18.3 65 59 10.2 50.3
19:45 1015 29.97 844 24.92 17.6 63.7 61 10 50
19:50 1015 29.97 844 24.92 17.5 63.4 58 9.2 48.6
19:55 1015 29.97 844 24.92 17.7 63.8 55 8.5 47.4
20:00 1015 29.97 844 24.92 17.9 64.3 51 7.8 46
20:05 1015 29.97 844 24.92 18.4 65.1 50 7.8 46
20:10 1015 29.97 844 24.92 18.7 65.7 45 6.6 43.9
20:15 1014 29.94 844 24.92 19 66.2 46 7.4 45.3
20:20 1014 29.94 843 24.89 18.6 65.5 47 7.1 44.7
20:25 1014 29.94 843 24.89 18.6 65.4 46 7 44.5
20:30 1014 29.94 843 24.89 18.6 65.6 47 7.2 44.9
20:35 1014 29.94 843 24.89 18.3 65 47 7.1 44.7
20:40 1014 29.94 843 24.89 19 66.2 41 5.6 42
20:45 1014 29.94 843 24.89 19.4 66.8 45 7.3 45.1
20:50 1014 29.94 843 24.89 18.8 65.9 46 7.2 45
20:55 1014 29.94 843 24.89 18.3 64.9 48 7.4 45.2
21:00 1014 29.94 843 24.89 17.9 64.2 52 7.9 46.3
21:05 1014 29.94 843 24.89 16.9 62.5 55 7.9 46.2
21:10 1014 29.94 843 24.89 16.8 62.2 52 7 44.6
21:15 1014 29.94 843 24.89 17.1 62.9 51 7.1 44.7
21:20 1014 29.94 843 24.89 17.4 63.3 49 6.6 43.9
21:25 1014 29.94 843 24.89 17.7 63.8 46 5.9 42.6
21:30 1014 29.94 843 24.89 18 64.4 46 6.3 43.4
21:35 1014 29.94 843 24.89 18.3 64.9 46 6.5 43.7
21:40 1014 29.94 843 24.89 17.9 64.3 46 6.3 43.3
21:45 1014 29.94 843 24.89 18.1 64.5 44 5.6 42.1
21:50 1014 29.94 843 24.89 18.2 64.8 46 6.5 43.8
21:55 1014 29.94 843 24.89 18 64.4 44 5.6 42.1
22:00 1014 29.94 843 24.89 18.3 64.9 45 6.2 43.1
22:05 1014 29.94 843 24.89 18.2 64.8 44 5.9 42.6
22:10 1014 29.94 843 24.89 18.1 64.6 45 6 42.7
22:15 1014 29.94 843 24.89 17.9 64.3 46 6.1 43
22:20 1014 29.94 843 24.89 17.4 63.4 47 6 42.7
22:25 1014 29.94 843 24.89 17.6 63.7 46 6 42.8
22:30 1014 29.94 843 24.89 17.5 63.5 47 6.2 43.1
22:35 1014 29.94 843 24.89 17.5 63.5 46 5.9 42.7
22:40 1014 29.94 843 24.89 17.4 63.2 51 7.3 45.1
22:45 1014 29.94 843 24.89 16.7 62.1 52 6.8 44.3
22:50 1014 29.94 843 24.89 16.4 61.5 52 6.6 43.9
22:55 1014 29.94 843 24.89 16.3 61.3 55 7.2 44.9
23:00 1014 29.94 843 24.89 16.2 61.1 51 6.1 43
23:05 1014 29.94 843 24.89 16.7 62 50 6.3 43.3
23:10 1014 29.94 843 24.89 16.7 62.1 52 7 44.6
23:15 1014 29.94 843 24.89 16.7 62 48 5.8 42.5
23:20 1014 29.94 843 24.89 17.3 63.1 49 6.4 43.6
23:25 1014 29.94 843 24.89 17 62.7 52 7.3 45.2
23:30 1014 29.94 843 24.89 16.7 62 54 7.5 45.5
23:35 1014 29.94 843 24.89 16.3 61.3 56 7.5 45.4
23:40 1014 29.94 843 24.89 16.3 61.3 53 6.7 44.1
23:45 1014 29.94 843 24.89 16.5 61.6 53 7 44.6
23:50 1014 29.94 844 24.92 16.4 61.5 53 6.8 44.2
23:55 1014 29.94 844 24.92 16.3 61.3 54 6.9 44.4
24:00 1014 29.94 844 24.92 16.1 61 59 8.1 46.6